Time;durP1;ratioP1;P1;durP2;ratioP2;P2;SDS_P1;SDS_P2;PMS_P1;PMS_P2;Temp;Humidity;BMP_temperature;BMP_pressure;BME280_temperature;BME280_humidity;BME280_pressure;Samples;Min_cycle;Max_cycle;Signal;HPM_P1;HPM_P2
2022/03/25 00:01:16;;;;;;;91.93;57.67;;;7.90;69.10;;;;;;4986721;28;20116;-75
2022/03/25 00:03:41;;;;;;;90.82;59.03;;;7.90;69.10;;;;;;4982307;28;20096;-75
2022/03/25 00:06:08;;;;;;;93.30;59.13;;;7.90;69.20;;;;;;4993795;28;20054;-75
2022/03/25 00:08:33;;;;;;;87.53;59.00;;;7.90;69.20;;;;;;4995985;28;20112;-75
2022/03/25 00:10:59;;;;;;;88.32;58.53;;;7.80;69.30;;;;;;4995250;28;20464;-75
2022/03/25 00:13:25;;;;;;;88.85;57.55;;;7.80;69.50;;;;;;4993450;28;20415;-76
2022/03/25 00:15:51;;;;;;;94.05;59.50;;;7.80;69.70;;;;;;4994384;28;20429;-75
2022/03/25 00:18:16;;;;;;;92.65;59.95;;;7.70;69.70;;;;;;4987094;28;20144;-75
2022/03/25 00:20:42;;;;;;;94.28;58.70;;;7.70;69.80;;;;;;4990180;28;20787;-74
2022/03/25 00:23:08;;;;;;;91.90;58.88;;;7.70;69.90;;;;;;4989375;28;20061;-74
2022/03/25 00:25:34;;;;;;;87.72;58.40;;;7.60;70.00;;;;;;4996457;28;20044;-74
2022/03/25 00:28:00;;;;;;;86.78;54.75;;;7.60;70.10;;;;;;4988273;28;20038;-75
2022/03/25 00:30:26;;;;;;;88.93;58.50;;;7.60;70.10;;;;;;4995656;28;20442;-75
2022/03/25 00:32:52;;;;;;;81.82;54.47;;;7.50;70.10;;;;;;4993797;28;20056;-75
2022/03/25 00:35:18;;;;;;;83.22;55.28;;;7.50;70.30;;;;;;4984844;28;20373;-75
2022/03/25 00:37:44;;;;;;;84.25;53.33;;;7.50;70.50;;;;;;4985485;28;20034;-76
2022/03/25 00:40:11;;;;;;;86.63;55.38;;;7.50;70.30;;;;;;4997332;28;20092;-75
2022/03/25 00:42:36;;;;;;;84.82;54.97;;;7.40;70.40;;;;;;4990573;28;20038;-75
2022/03/25 00:45:04;;;;;;;85.38;54.65;;;7.40;70.60;;;;;;4997607;28;20448;-76
2022/03/25 00:47:30;;;;;;;89.47;55.58;;;7.40;70.80;;;;;;4988267;28;20389;-74
2022/03/25 00:49:55;;;;;;;91.05;55.97;;;7.40;70.80;;;;;;5004170;28;20034;-75
2022/03/25 00:52:22;;;;;;;89.95;58.53;;;7.30;70.70;;;;;;5005680;28;20117;-75
2022/03/25 00:54:48;;;;;;;90.45;58.40;;;7.30;71.00;;;;;;4992306;28;20030;-75
2022/03/25 00:57:14;;;;;;;94.57;61.42;;;7.30;71.20;;;;;;4992816;28;20096;-75
2022/03/25 00:59:39;;;;;;;98.32;62.08;;;7.30;71.60;;;;;;4989716;28;20044;-75
2022/03/25 01:02:05;;;;;;;90.05;61.22;;;7.30;72.00;;;;;;5001536;28;20034;-75
2022/03/25 01:04:30;;;;;;;100.63;64.15;;;7.30;72.30;;;;;;4981999;28;20048;-75
2022/03/25 01:06:56;;;;;;;103.60;64.30;;;7.30;72.70;;;;;;4975508;28;20065;-75
2022/03/25 01:09:22;;;;;;;97.03;63.22;;;7.30;73.00;;;;;;4990369;28;20035;-74
2022/03/25 01:11:49;;;;;;;100.80;62.38;;;7.40;73.30;;;;;;4994695;28;20116;-75
2022/03/25 01:14:15;;;;;;;94.05;58.72;;;7.30;73.20;;;;;;5004159;28;20038;-75
2022/03/25 01:16:40;;;;;;;97.47;61.78;;;7.30;72.90;;;;;;5004134;28;20050;-75
2022/03/25 01:19:06;;;;;;;96.72;61.08;;;7.20;72.80;;;;;;4995605;28;20742;-75
2022/03/25 01:21:32;;;;;;;93.80;60.38;;;7.20;72.80;;;;;;4997205;28;20034;-75
2022/03/25 01:23:58;;;;;;;96.20;60.20;;;7.10;73.00;;;;;;4979871;28;20246;-75
2022/03/25 01:26:24;;;;;;;93.20;60.72;;;7.10;72.90;;;;;;4993301;28;20028;-75
2022/03/25 01:28:50;;;;;;;94.40;61.53;;;7.10;72.90;;;;;;4986163;28;20030;-74
2022/03/25 01:31:16;;;;;;;90.38;59.15;;;7.10;73.00;;;;;;5004427;28;20050;-75
2022/03/25 01:33:42;;;;;;;96.88;61.72;;;7.00;73.10;;;;;;5004121;28;20526;-74
2022/03/25 01:36:08;;;;;;;94.40;62.15;;;7.00;73.10;;;;;;4996321;28;20243;-75
2022/03/25 01:38:34;;;;;;;96.78;63.13;;;7.00;73.20;;;;;;4995280;28;20072;-74
2022/03/25 01:41:00;;;;;;;98.90;62.20;;;6.90;73.30;;;;;;4986449;28;20117;-75
2022/03/25 01:43:26;;;;;;;100.50;63.63;;;6.90;73.50;;;;;;4966268;28;20046;-75
2022/03/25 01:45:52;;;;;;;95.32;59.33;;;6.80;73.60;;;;;;5000720;28;20033;-76
2022/03/25 01:48:18;;;;;;;93.53;60.72;;;6.80;73.60;;;;;;4979614;28;20050;-75
2022/03/25 01:50:47;;;;;;;98.47;64.28;;;6.80;73.80;;;;;;5014416;28;20034;-75
2022/03/25 01:53:22;;;;;;;108.13;64.70;;;6.80;74.00;;;;;;5005621;28;20351;-75
2022/03/25 01:55:51;;;;;;;103.88;66.13;;;6.80;74.40;;;;;;5006409;28;20045;-75
2022/03/25 01:58:18;;;;;;;120.22;74.05;;;6.80;74.70;;;;;;4997735;28;20030;-75
2022/03/25 02:00:44;;;;;;;112.93;70.30;;;6.90;75.90;;;;;;5005843;28;20079;-75
2022/03/25 02:03:10;;;;;;;112.45;69.93;;;6.80;76.10;;;;;;5009828;28;20536;-75
2022/03/25 02:05:36;;;;;;;114.65;70.05;;;6.80;76.30;;;;;;5001396;28;20044;-75
2022/03/25 02:08:03;;;;;;;115.93;69.03;;;6.80;76.60;;;;;;5006957;28;20468;-75
2022/03/25 02:10:29;;;;;;;102.13;64.03;;;6.80;76.80;;;;;;4999747;28;20480;-75
2022/03/25 02:12:54;;;;;;;111.95;67.75;;;6.80;76.60;;;;;;4993687;28;20030;-75
2022/03/25 02:15:40;;;;;;;109.40;68.53;;;6.80;76.40;;;;;;4997434;28;20044;-75
2022/03/25 02:18:12;;;;;;;101.93;65.53;;;6.70;76.30;;;;;;4988463;28;20553;-74
2022/03/25 02:20:39;;;;;;;109.82;69.60;;;6.70;76.20;;;;;;4991960;28;20068;-74
2022/03/25 02:23:05;;;;;;;104.38;65.32;;;6.60;76.00;;;;;;4991194;28;20030;-74
2022/03/25 02:25:32;;;;;;;103.80;66.70;;;6.60;76.20;;;;;;4988008;28;20083;-74
2022/03/25 02:27:59;;;;;;;107.85;67.65;;;6.60;76.20;;;;;;4982838;28;20686;-75
2022/03/25 02:30:26;;;;;;;103.35;64.50;;;6.60;76.20;;;;;;4997946;28;20145;-74
2022/03/25 02:32:53;;;;;;;109.53;68.25;;;6.50;76.40;;;;;;4992496;28;20049;-75
2022/03/25 02:35:19;;;;;;;101.18;65.13;;;6.50;76.30;;;;;;4988519;28;20030;-75
2022/03/25 02:37:45;;;;;;;104.38;67.60;;;6.40;76.30;;;;;;5005994;28;20089;-75
2022/03/25 02:40:11;;;;;;;107.93;66.88;;;6.40;76.20;;;;;;5001398;28;20057;-75
2022/03/25 02:42:37;;;;;;;100.07;67.30;;;6.40;76.20;;;;;;4998897;28;20121;-74
2022/03/25 02:45:04;;;;;;;103.25;65.72;;;6.40;76.20;;;;;;4995394;28;20041;-75
2022/03/25 02:47:29;;;;;;;103.18;64.85;;;6.30;76.50;;;;;;4998201;28;20386;-75
2022/03/25 02:49:55;;;;;;;101.47;65.35;;;6.30;76.50;;;;;;4998638;28;20045;-75
2022/03/25 02:52:21;;;;;;;101.57;63.75;;;6.30;76.60;;;;;;5002770;28;20564;-75
2022/03/25 02:54:47;;;;;;;99.85;65.00;;;6.20;76.40;;;;;;5000165;28;20108;-74
2022/03/25 02:57:12;;;;;;;114.60;72.30;;;6.20;76.30;;;;;;5005819;28;20029;-74
2022/03/25 02:59:38;;;;;;;110.75;69.53;;;6.20;76.50;;;;;;4990071;28;20179;-74
2022/03/25 03:02:04;;;;;;;112.72;68.07;;;6.20;76.80;;;;;;5000221;28;20100;-74
2022/03/25 03:04:30;;;;;;;112.72;68.68;;;6.20;77.00;;;;;;4994174;28;20042;-74
2022/03/25 03:06:56;;;;;;;118.60;72.13;;;6.20;77.40;;;;;;4999884;28;20037;-74
2022/03/25 03:09:21;;;;;;;116.65;69.30;;;6.20;77.90;;;;;;5004877;28;20037;-74
2022/03/25 03:11:47;;;;;;;108.32;68.30;;;6.20;77.80;;;;;;4996828;28;20045;-75
2022/03/25 03:14:13;;;;;;;107.00;67.93;;;6.20;77.70;;;;;;5007938;28;20048;-75
2022/03/25 03:16:39;;;;;;;104.43;66.30;;;6.10;77.40;;;;;;4979818;28;20065;-75
2022/03/25 03:19:05;;;;;;;103.45;63.97;;;6.10;77.30;;;;;;4981736;28;20533;-75
2022/03/25 03:21:32;;;;;;;107.07;65.25;;;6.10;77.10;;;;;;5002745;28;20030;-75
2022/03/25 03:23:58;;;;;;;103.35;66.50;;;6.10;76.90;;;;;;5000857;28;20465;-74
2022/03/25 03:26:23;;;;;;;100.93;64.00;;;6.10;76.90;;;;;;4993704;28;20034;-75
2022/03/25 03:28:49;;;;;;;105.93;66.03;;;6.10;76.80;;;;;;4996171;28;20457;-74
2022/03/25 03:31:15;;;;;;;105.43;64.50;;;6.10;76.70;;;;;;4982384;28;20414;-75
2022/03/25 03:33:41;;;;;;;102.85;64.10;;;6.10;76.90;;;;;;4996645;28;20556;-75
2022/03/25 03:36:06;;;;;;;108.93;65.07;;;6.00;77.00;;;;;;5002239;28;20092;-75
2022/03/25 03:38:32;;;;;;;101.38;66.07;;;6.00;77.00;;;;;;4990548;28;20045;-74
2022/03/25 03:40:58;;;;;;;106.43;65.13;;;6.00;77.10;;;;;;4979865;28;20541;-75
2022/03/25 03:43:23;;;;;;;106.43;65.80;;;6.00;77.10;;;;;;4991666;28;20585;-74
2022/03/25 03:45:49;;;;;;;105.82;67.53;;;5.90;77.10;;;;;;4997910;28;20069;-75
2022/03/25 03:48:15;;;;;;;106.93;67.32;;;5.90;77.10;;;;;;4988141;28;20045;-75
2022/03/25 03:50:40;;;;;;;113.10;69.68;;;6.00;77.10;;;;;;4998585;28;20079;-75
2022/03/25 03:53:07;;;;;;;118.57;72.50;;;6.00;78.40;;;;;;5000206;28;20041;-75
2022/03/25 03:55:32;;;;;;;124.00;72.07;;;6.10;79.20;;;;;;5002367;28;20121;-75
2022/03/25 03:57:58;;;;;;;117.70;72.25;;;6.10;79.90;;;;;;5005578;28;20052;-75
2022/03/25 04:00:24;;;;;;;115.53;69.70;;;6.10;79.90;;;;;;5003890;28;20780;-75
2022/03/25 04:02:50;;;;;;;121.32;73.03;;;6.10;79.80;;;;;;5001893;28;20320;-74
2022/03/25 04:05:16;;;;;;;108.90;68.03;;;6.10;79.80;;;;;;4997513;28;20382;-75
2022/03/25 04:07:47;;;;;;;114.85;68.75;;;6.00;79.80;;;;;;4993631;28;20030;-75
2022/03/25 04:10:14;;;;;;;106.03;66.30;;;6.00;79.80;;;;;;5003433;28;20060;-75
2022/03/25 04:12:40;;;;;;;106.88;65.70;;;6.00;79.70;;;;;;4988593;28;20502;-75
2022/03/25 04:15:09;;;;;;;107.00;69.00;;;6.00;79.80;;;;;;5003393;28;20021;-75
2022/03/25 04:17:36;;;;;;;106.95;65.25;;;5.90;79.70;;;;;;5001100;28;20545;-75
2022/03/25 04:20:02;;;;;;;104.88;63.40;;;5.90;79.70;;;;;;5004089;28;20462;-75
2022/03/25 04:22:28;;;;;;;108.35;66.18;;;5.90;79.60;;;;;;4998783;28;20435;-75
2022/03/25 04:24:57;;;;;;;108.90;66.40;;;5.80;79.60;;;;;;4998425;28;20402;-75
2022/03/25 04:27:23;;;;;;;105.28;66.05;;;5.80;79.80;;;;;;4996425;28;20046;-75
2022/03/25 04:29:49;;;;;;;101.00;63.47;;;5.80;79.70;;;;;;4999940;28;20497;-74
2022/03/25 04:32:14;;;;;;;99.90;60.97;;;5.80;79.80;;;;;;4998548;28;20030;-76
2022/03/25 04:34:40;;;;;;;105.13;62.88;;;5.70;79.70;;;;;;5002065;28;20440;-75
2022/03/25 04:37:07;;;;;;;101.10;62.17;;;5.70;79.50;;;;;;4980014;28;20034;-76
2022/03/25 04:39:32;;;;;;;101.60;62.92;;;5.70;79.40;;;;;;4991316;28;20029;-75
2022/03/25 04:41:58;;;;;;;106.32;64.03;;;5.60;79.30;;;;;;4992843;28;20089;-75
2022/03/25 04:44:24;;;;;;;102.90;63.00;;;5.60;79.20;;;;;;4993380;28;20079;-75
2022/03/25 04:46:49;;;;;;;96.65;63.03;;;5.60;79.30;;;;;;5005478;28;20465;-75
2022/03/25 04:49:15;;;;;;;102.60;62.28;;;5.60;79.30;;;;;;4994437;28;20291;-75
2022/03/25 04:51:40;;;;;;;101.85;63.50;;;5.60;79.40;;;;;;4990809;28;20050;-75
2022/03/25 04:54:06;;;;;;;94.65;62.25;;;5.50;79.50;;;;;;4990028;28;20022;-75
2022/03/25 04:56:35;;;;;;;101.03;62.35;;;5.50;79.40;;;;;;4994403;28;20421;-75
2022/03/25 04:59:00;;;;;;;102.75;64.28;;;5.40;79.40;;;;;;4982298;28;20033;-75
2022/03/25 05:01:26;;;;;;;100.22;62.53;;;5.40;79.40;;;;;;4994888;28;20845;-75
2022/03/25 05:03:52;;;;;;;100.10;64.88;;;5.40;79.50;;;;;;4991442;28;20229;-75
2022/03/25 05:06:17;;;;;;;103.80;63.75;;;5.30;79.50;;;;;;4996122;28;20128;-76
2022/03/25 05:08:43;;;;;;;102.40;62.42;;;5.30;79.50;;;;;;4980602;28;20080;-76
2022/03/25 05:11:09;;;;;;;95.47;59.67;;;5.30;79.50;;;;;;4982797;28;20057;-75
2022/03/25 05:13:35;;;;;;;94.88;58.63;;;5.30;79.50;;;;;;4983287;28;20042;-76
2022/03/25 05:16:01;;;;;;;99.15;61.65;;;5.30;79.50;;;;;;4988997;28;20034;-75
2022/03/25 05:18:26;;;;;;;100.25;61.58;;;5.20;79.30;;;;;;4984569;28;20390;-76
2022/03/25 05:20:52;;;;;;;99.28;59.20;;;5.20;79.30;;;;;;4989741;28;20085;-76
2022/03/25 05:23:18;;;;;;;92.38;58.00;;;5.20;79.40;;;;;;4985454;28;20620;-76
2022/03/25 05:25:43;;;;;;;97.55;60.28;;;5.20;79.40;;;;;;4985051;28;20436;-76
2022/03/25 05:28:09;;;;;;;92.00;58.85;;;5.10;79.30;;;;;;4988757;28;20158;-75
2022/03/25 05:30:35;;;;;;;95.22;62.42;;;5.10;79.20;;;;;;4998219;28;20037;-77
2022/03/25 05:33:01;;;;;;;99.18;61.28;;;5.10;79.20;;;;;;5011917;28;20034;-76
2022/03/25 05:35:28;;;;;;;98.63;61.20;;;5.10;79.10;;;;;;5012562;28;20030;-76
2022/03/25 05:37:54;;;;;;;101.72;63.60;;;5.10;79.10;;;;;;4999351;28;20030;-75
2022/03/25 05:40:23;;;;;;;103.20;62.72;;;5.10;79.00;;;;;;5015922;28;20111;-76
2022/03/25 05:42:49;;;;;;;100.68;61.65;;;5.10;79.00;;;;;;5006400;28;20041;-76
2022/03/25 05:45:20;;;;;;;97.35;61.10;;;5.10;79.20;;;;;;5005275;28;20034;-76
2022/03/25 05:47:46;;;;;;;97.75;60.38;;;5.10;79.10;;;;;;4994382;28;20050;-76
2022/03/25 05:50:12;;;;;;;96.20;60.58;;;5.10;79.20;;;;;;4994391;28;20442;-76
2022/03/25 05:52:39;;;;;;;96.53;58.78;;;5.10;79.20;;;;;;4990148;28;20053;-76
2022/03/25 05:55:05;;;;;;;92.82;57.65;;;5.10;79.10;;;;;;4988835;28;20145;-75
2022/03/25 05:57:31;;;;;;;91.72;58.15;;;5.10;79.00;;;;;;4990508;28;20065;-75
2022/03/25 05:59:59;;;;;;;90.35;56.70;;;5.10;78.90;;;;;;4984572;28;20044;-79
2022/03/25 06:02:25;;;;;;;91.70;57.30;;;5.20;78.60;;;;;;4999443;28;20034;-77
2022/03/25 06:04:52;;;;;;;94.43;60.33;;;5.20;78.40;;;;;;5006612;28;20080;-76
2022/03/25 06:07:17;;;;;;;96.70;59.35;;;5.30;78.30;;;;;;4997459;28;20076;-75
2022/03/25 06:09:43;;;;;;;95.30;58.88;;;5.30;78.30;;;;;;4980301;28;20148;-75
2022/03/25 06:12:10;;;;;;;89.25;57.58;;;5.40;78.20;;;;;;4999424;28;20030;-75
2022/03/25 06:14:36;;;;;;;89.35;58.80;;;5.40;78.10;;;;;;4997616;28;20373;-75
2022/03/25 06:17:01;;;;;;;100.30;61.90;;;5.40;78.00;;;;;;4999208;28;20033;-77
2022/03/25 06:19:29;;;;;;;91.10;58.10;;;5.50;77.90;;;;;;4997779;28;20722;-76
2022/03/25 06:21:56;;;;;;;98.35;62.63;;;5.60;77.90;;;;;;5009421;28;20041;-75
2022/03/25 06:24:22;;;;;;;103.95;63.55;;;5.60;77.90;;;;;;5005413;28;20052;-76
2022/03/25 06:26:47;;;;;;;98.40;60.60;;;5.70;78.40;;;;;;4980141;28;20033;-78
2022/03/25 06:29:13;;;;;;;112.22;66.07;;;5.80;78.50;;;;;;4996954;28;20042;-75
2022/03/25 06:31:38;;;;;;;116.78;69.75;;;5.90;78.60;;;;;;5005858;28;20044;-74
2022/03/25 06:34:04;;;;;;;115.10;70.40;;;6.10;78.80;;;;;;5013420;28;20030;-77
2022/03/25 06:36:30;;;;;;;114.82;69.38;;;6.20;79.30;;;;;;4996697;28;20595;-76
2022/03/25 06:38:55;;;;;;;116.88;71.63;;;6.30;79.40;;;;;;4995489;28;20456;-76
2022/03/25 06:41:21;;;;;;;105.40;66.88;;;6.40;79.80;;;;;;4995206;28;20513;-77
2022/03/25 06:43:47;;;;;;;105.70;67.28;;;6.70;80.00;;;;;;5000227;28;20041;-76
2022/03/25 06:46:14;;;;;;;100.50;62.60;;;7.50;78.30;;;;;;5001787;28;20141;-75
2022/03/25 06:48:40;;;;;;;97.78;56.95;;;8.20;75.80;;;;;;4986078;28;20041;-76
2022/03/25 06:51:06;;;;;;;88.60;56.72;;;8.80;73.30;;;;;;4985434;28;20461;-76
2022/03/25 06:53:32;;;;;;;89.13;54.60;;;9.10;71.50;;;;;;5001002;28;20499;-77
2022/03/25 06:55:58;;;;;;;93.25;56.50;;;9.10;70.40;;;;;;4990679;28;20041;-76
2022/03/25 06:58:24;;;;;;;87.40;53.53;;;8.90;71.10;;;;;;4995301;28;20045;-74
2022/03/25 07:00:50;;;;;;;88.05;52.65;;;8.60;71.70;;;;;;5004012;28;20037;-75
2022/03/25 07:03:15;;;;;;;81.10;50.88;;;8.40;72.80;;;;;;4991922;28;20044;-76
2022/03/25 07:05:41;;;;;;;89.85;53.08;;;8.20;73.30;;;;;;4993783;28;20397;-78
2022/03/25 07:08:09;;;;;;;80.13;51.70;;;8.10;74.00;;;;;;4994332;28;20038;-74
2022/03/25 07:10:35;;;;;;;82.10;49.83;;;8.00;74.50;;;;;;4998236;28;20447;-75
2022/03/25 07:13:01;;;;;;;78.47;47.67;;;7.90;74.70;;;;;;4998218;28;20425;-75
2022/03/25 07:15:27;;;;;;;78.15;49.58;;;7.90;75.20;;;;;;4990762;28;20038;-74
2022/03/25 07:17:53;;;;;;;76.70;48.00;;;8.00;74.90;;;;;;4997400;28;20103;-78
2022/03/25 07:20:21;;;;;;;78.15;47.45;;;8.00;74.80;;;;;;5010267;28;20048;-78
2022/03/25 07:22:49;;;;;;;76.15;48.47;;;8.10;74.60;;;;;;4988620;28;20068;-76
2022/03/25 07:25:15;;;;;;;75.13;47.03;;;8.10;74.40;;;;;;5008506;28;20037;-76
2022/03/25 07:27:42;;;;;;;74.55;48.25;;;8.20;74.40;;;;;;5000911;28;20046;-76
2022/03/25 07:30:09;;;;;;;78.30;46.10;;;8.30;73.80;;;;;;4999883;28;20064;-80
2022/03/25 07:32:35;;;;;;;77.43;49.70;;;8.30;73.80;;;;;;4997155;28;20041;-76
2022/03/25 07:35:02;;;;;;;79.00;49.17;;;8.20;74.20;;;;;;4994354;28;20052;-76
2022/03/25 07:37:28;;;;;;;74.28;48.38;;;8.30;74.70;;;;;;4999397;28;20047;-77
2022/03/25 07:39:54;;;;;;;77.28;48.50;;;8.30;74.60;;;;;;4994936;28;20053;-76
2022/03/25 07:42:19;;;;;;;80.63;47.97;;;8.50;74.50;;;;;;4992694;28;20196;-81
2022/03/25 07:44:45;;;;;;;75.43;47.95;;;8.60;74.10;;;;;;4993366;28;20042;-77
2022/03/25 07:47:13;;;;;;;78.65;48.33;;;8.80;73.60;;;;;;4988888;28;20074;-80
2022/03/25 07:49:40;;;;;;;73.65;48.00;;;9.00;73.60;;;;;;4983002;28;20455;-81
2022/03/25 07:52:07;;;;;;;74.45;47.78;;;9.10;72.90;;;;;;5004161;28;20041;-77
2022/03/25 07:54:33;;;;;;;72.68;47.38;;;9.40;72.60;;;;;;4998066;28;20025;-80
2022/03/25 07:56:59;;;;;;;74.18;46.95;;;9.60;71.30;;;;;;5005915;28;20049;-80
2022/03/25 07:59:26;;;;;;;67.90;46.75;;;9.70;70.90;;;;;;4995793;28;20157;-84
2022/03/25 08:01:54;;;;;;;79.05;47.92;;;9.80;70.40;;;;;;4992713;28;20477;-77
2022/03/25 08:04:23;;;;;;;67.63;45.78;;;9.90;69.90;;;;;;4987586;28;20040;-82
2022/03/25 08:06:50;;;;;;;74.55;46.72;;;10.10;69.60;;;;;;4991016;28;20481;-78
2022/03/25 08:09:15;;;;;;;73.22;45.35;;;10.10;69.60;;;;;;4994702;28;20037;-75
2022/03/25 08:11:42;;;;;;;72.18;44.65;;;10.30;68.90;;;;;;4991025;28;20473;-78
2022/03/25 08:14:07;;;;;;;69.30;45.83;;;10.50;68.10;;;;;;4987452;28;20092;-76
2022/03/25 08:16:33;;;;;;;76.22;47.75;;;10.70;67.60;;;;;;4993016;28;20073;-78
2022/03/25 08:18:59;;;;;;;74.88;45.67;;;11.00;66.60;;;;;;4991456;28;20056;-78
2022/03/25 08:21:24;;;;;;;70.35;44.05;;;11.20;65.80;;;;;;4990453;28;20117;-79
2022/03/25 08:29:20;;;;;;;60.10;41.25;;;11.70;63.80;;;;;;4989281;28;20584;-76
2022/03/25 08:31:46;;;;;;;64.60;41.33;;;11.90;62.80;;;;;;4985870;28;20139;-77
2022/03/25 08:34:14;;;;;;;67.05;41.50;;;12.00;61.50;;;;;;5002129;28;20089;-77
2022/03/25 08:36:40;;;;;;;65.03;42.35;;;12.00;61.90;;;;;;4990095;28;20525;-81
2022/03/25 08:39:06;;;;;;;63.33;40.95;;;12.10;61.30;;;;;;4983015;28;20092;-79
2022/03/25 08:41:32;;;;;;;64.95;41.05;;;12.30;61.40;;;;;;4995227;28;20038;-82
2022/03/25 08:43:58;;;;;;;55.17;37.63;;;12.40;60.30;;;;;;4978046;28;20068;-77
2022/03/25 08:46:24;;;;;;;56.00;39.03;;;12.40;59.50;;;;;;4995887;28;20375;-77
2022/03/25 08:48:49;;;;;;;62.45;40.53;;;12.30;60.30;;;;;;4989421;28;20050;-77
2022/03/25 08:51:15;;;;;;;56.78;38.45;;;12.40;59.10;;;;;;4998374;28;20037;-76
2022/03/25 08:53:41;;;;;;;59.03;38.58;;;12.50;59.00;;;;;;4981534;28;20477;-79
2022/03/25 08:56:07;;;;;;;52.92;38.00;;;12.60;58.80;;;;;;4995762;28;20084;-81
2022/03/25 08:58:33;;;;;;;59.15;38.40;;;12.80;58.70;;;;;;4994484;28;20142;-78
2022/03/25 09:00:59;;;;;;;56.80;38.85;;;13.00;57.90;;;;;;4989768;28;20046;-77
2022/03/25 09:03:25;;;;;;;55.80;38.42;;;13.20;57.00;;;;;;4999823;28;20049;-76
2022/03/25 09:05:51;;;;;;;58.13;37.13;;;13.10;56.20;;;;;;4977967;28;20129;-78
2022/03/25 09:08:17;;;;;;;63.50;38.47;;;13.40;55.40;;;;;;4997852;28;20536;-76
2022/03/25 09:10:44;;;;;;;54.85;36.70;;;13.50;55.30;;;;;;4994852;28;20034;-78
2022/03/25 09:13:11;;;;;;;58.53;38.03;;;13.70;54.40;;;;;;4988695;28;20126;-77
2022/03/25 09:15:37;;;;;;;50.15;35.92;;;13.80;54.10;;;;;;4996738;28;20512;-77
2022/03/25 09:18:02;;;;;;;51.58;33.10;;;14.20;53.30;;;;;;4990525;28;20042;-78
2022/03/25 09:20:28;;;;;;;51.00;32.00;;;14.30;49.60;;;;;;4988752;28;20049;-77
2022/03/25 09:22:54;;;;;;;44.58;28.88;;;14.50;50.40;;;;;;4987368;28;20045;-76
2022/03/25 09:25:20;;;;;;;50.35;33.30;;;14.40;47.00;;;;;;4986622;28;20092;-78
2022/03/25 09:27:46;;;;;;;46.40;30.30;;;14.30;48.50;;;;;;5002513;28;20042;-76
2022/03/25 09:30:13;;;;;;;45.67;28.77;;;14.40;49.20;;;;;;5004919;28;20042;-77
2022/03/25 09:32:38;;;;;;;44.35;28.75;;;14.60;47.10;;;;;;5002980;28;20437;-77
2022/03/25 09:35:10;;;;;;;42.35;28.95;;;14.80;46.70;;;;;;5003006;28;20045;-75
2022/03/25 09:37:40;;;;;;;46.35;27.65;;;14.90;47.20;;;;;;5003776;28;20346;-77
2022/03/25 09:40:10;;;;;;;43.55;24.20;;;14.80;46.00;;;;;;4993826;28;20042;-77
2022/03/25 09:42:36;;;;;;;38.13;19.92;;;15.10;43.60;;;;;;4993960;28;20038;-76
2022/03/25 09:45:03;;;;;;;33.75;20.77;;;15.30;40.20;;;;;;4992895;28;20228;-79
2022/03/25 09:47:31;;;;;;;35.22;22.42;;;15.30;39.10;;;;;;4990843;28;20054;-76
2022/03/25 09:50:01;;;;;;;34.15;20.42;;;15.10;39.90;;;;;;4993686;28;20125;-77
2022/03/25 09:52:31;;;;;;;34.47;22.67;;;15.50;39.70;;;;;;4995806;28;20132;-78
2022/03/25 09:54:58;;;;;;;32.30;20.73;;;15.80;39.30;;;;;;4995327;28;20042;-76
2022/03/25 09:57:26;;;;;;;35.63;20.83;;;15.60;38.70;;;;;;4995027;28;20173;-76
2022/03/25 09:59:52;;;;;;;38.95;24.50;;;15.80;38.70;;;;;;4996222;28;20034;-80
2022/03/25 10:02:18;;;;;;;38.15;24.75;;;15.90;40.90;;;;;;4996320;28;20457;-75
2022/03/25 10:04:46;;;;;;;39.08;24.60;;;16.00;42.00;;;;;;4995273;28;20042;-76
2022/03/25 10:07:18;;;;;;;41.95;24.63;;;16.10;41.10;;;;;;4994129;28;20661;-76
2022/03/25 10:09:45;;;;;;;35.35;23.83;;;16.10;41.30;;;;;;4995534;28;20037;-78
2022/03/25 10:12:26;;;;;;;39.42;22.98;;;16.00;41.10;;;;;;4995913;28;20053;-79
2022/03/25 10:15:10;;;;;;;38.00;23.90;;;16.20;39.80;;;;;;4996565;28;20041;-78
2022/03/25 10:17:54;;;;;;;37.55;24.10;;;16.00;40.10;;;;;;4982719;28;20421;-78
2022/03/25 10:20:23;;;;;;;37.63;23.90;;;15.80;41.30;;;;;;4997997;28;20100;-76
2022/03/25 10:23:00;;;;;;;35.60;24.27;;;15.80;40.30;;;;;;4997500;28;20033;-78
2022/03/25 10:25:38;;;;;;;38.58;23.75;;;15.90;39.90;;;;;;4995678;28;20053;-77
2022/03/25 10:28:16;;;;;;;38.28;23.38;;;16.00;40.80;;;;;;4995936;28;20489;-79
2022/03/25 10:30:42;;;;;;;38.45;23.20;;;16.00;40.10;;;;;;4992141;28;20237;-76
2022/03/25 10:33:30;;;;;;;38.20;22.38;;;16.10;39.70;;;;;;4992025;28;20453;-80
2022/03/25 10:36:07;;;;;;;37.95;21.70;;;16.20;39.70;;;;;;4978952;28;20401;-78
2022/03/25 10:38:48;;;;;;;39.83;23.50;;;16.30;38.80;;;;;;4993848;28;20061;-76
2022/03/25 10:41:17;;;;;;;40.67;23.83;;;16.20;39.40;;;;;;4995963;28;20478;-79
2022/03/25 10:44:03;;;;;;;36.08;22.77;;;16.30;39.20;;;;;;4997391;28;20084;-77
2022/03/25 10:46:34;;;;;;;44.88;27.35;;;16.30;37.90;;;;;;4996432;28;20046;-79
2022/03/25 10:49:01;;;;;;;37.13;22.20;;;16.20;39.50;;;;;;5001629;28;20191;-78
2022/03/25 10:51:28;;;;;;;35.20;21.45;;;16.30;38.50;;;;;;5003196;28;20132;-78
2022/03/25 10:54:00;;;;;;;38.75;21.13;;;16.20;37.00;;;;;;4991322;28;20050;-79
2022/03/25 10:56:27;;;;;;;32.85;19.70;;;16.20;38.00;;;;;;4994836;28;20549;-79
2022/03/25 10:58:57;;;;;;;29.50;19.27;;;16.50;37.20;;;;;;5007662;28;20053;-78
2022/03/25 11:01:24;;;;;;;32.92;17.40;;;16.40;37.40;;;;;;5008231;28;20040;-77
2022/03/25 11:03:51;;;;;;;27.73;15.85;;;16.60;36.70;;;;;;5005966;28;20493;-78
2022/03/25 11:06:18;;;;;;;30.13;14.00;;;16.60;34.90;;;;;;4979146;28;20169;-77
2022/03/25 11:08:45;;;;;;;27.02;14.70;;;16.60;35.90;;;;;;4999192;28;20085;-78
2022/03/25 11:11:14;;;;;;;21.48;11.43;;;16.80;35.80;;;;;;4980002;28;20390;-78
2022/03/25 11:13:40;;;;;;;26.33;13.23;;;16.90;34.00;;;;;;4993031;28;20410;-77
2022/03/25 11:16:10;;;;;;;26.58;13.38;;;16.70;34.00;;;;;;4994290;28;20467;-79
2022/03/25 11:18:39;;;;;;;20.63;13.20;;;16.50;35.50;;;;;;4995980;28;20117;-80
2022/03/25 11:21:06;;;;;;;21.95;11.20;;;16.50;35.90;;;;;;4998424;28;20038;-77
2022/03/25 11:23:41;;;;;;;20.90;10.88;;;16.70;35.20;;;;;;4995767;28;20490;-79
2022/03/25 11:26:09;;;;;;;17.50;9.98;;;16.80;33.30;;;;;;4995163;28;20046;-79
2022/03/25 11:28:36;;;;;;;16.55;9.27;;;16.90;33.80;;;;;;4980389;28;20050;-79
2022/03/25 11:31:05;;;;;;;21.58;11.35;;;17.10;32.70;;;;;;4995891;28;20469;-80
2022/03/25 11:33:31;;;;;;;20.17;11.65;;;17.10;33.30;;;;;;4991622;28;20321;-80
2022/03/25 11:36:18;;;;;;;17.30;7.95;;;17.00;34.30;;;;;;4994515;28;20095;-80
2022/03/25 11:38:44;;;;;;;13.82;7.57;;;16.90;31.00;;;;;;4992209;28;20044;-78
2022/03/25 11:41:27;;;;;;;16.70;9.98;;;17.00;30.80;;;;;;4995944;28;20200;-78
2022/03/25 11:44:14;;;;;;;19.92;10.90;;;17.00;31.40;;;;;;4980594;28;20078;-80
2022/03/25 11:46:58;;;;;;;21.25;10.65;;;16.80;30.60;;;;;;4993788;28;20061;-78
2022/03/25 11:49:25;;;;;;;18.58;10.30;;;17.00;33.00;;;;;;4994766;28;20054;-78
2022/03/25 11:51:51;;;;;;;18.55;10.02;;;17.10;33.20;;;;;;4996205;28;20052;-79
2022/03/25 11:54:35;;;;;;;17.98;9.90;;;17.00;31.20;;;;;;4992838;28;20042;-78
2022/03/25 11:57:03;;;;;;;17.73;10.07;;;17.00;30.50;;;;;;4995968;28;20464;-79
2022/03/25 11:59:50;;;;;;;20.92;11.30;;;16.90;30.50;;;;;;4997187;28;20039;-79
2022/03/25 12:02:27;;;;;;;23.63;11.65;;;17.10;31.30;;;;;;4992285;28;20060;-79
2022/03/25 12:04:53;;;;;;;22.95;12.55;;;17.30;30.40;;;;;;4990933;28;20477;-80
2022/03/25 12:07:19;;;;;;;24.55;15.50;;;17.40;31.20;;;;;;4993715;28;20046;-79
2022/03/25 12:09:46;;;;;;;29.63;16.25;;;17.20;31.30;;;;;;4993309;28;20042;-80
2022/03/25 12:12:12;;;;;;;31.05;16.92;;;17.30;32.40;;;;;;4992695;28;20141;-79
2022/03/25 12:15:11;;;;;;;26.90;16.20;;;17.30;31.60;;;;;;4994045;28;20033;-80
2022/03/25 12:17:38;;;;;;;28.48;17.50;;;17.30;31.20;;;;;;4990200;28;20490;-79
2022/03/25 12:20:04;;;;;;;32.00;19.88;;;17.50;32.00;;;;;;4988183;28;20034;-79
2022/03/25 12:22:33;;;;;;;31.77;21.08;;;17.50;32.80;;;;;;4992353;28;20061;-80
2022/03/25 12:25:09;;;;;;;28.77;18.73;;;17.20;33.20;;;;;;4993449;28;20038;-80
2022/03/25 12:27:35;;;;;;;29.40;18.13;;;17.10;32.70;;;;;;4993088;28;20065;-78
2022/03/25 12:30:01;;;;;;;27.45;17.08;;;17.10;32.80;;;;;;4989896;28;20514;-78
2022/03/25 12:32:33;;;;;;;29.25;18.05;;;17.10;33.20;;;;;;4996658;28;20041;-80
2022/03/25 12:35:18;;;;;;;28.90;16.90;;;17.20;33.40;;;;;;4978482;28;20080;-78
2022/03/25 12:38:06;;;;;;;28.55;18.10;;;17.20;31.70;;;;;;4995754;28;20117;-80